createdAt,value
2023-01-13T00:01:13.123Z,98322.28
2023-01-13T00:03:40.344Z,98316.63
2023-01-13T00:06:08.009Z,98320.94
2023-01-13T00:08:35.724Z,98330.56
2023-01-13T00:11:02.705Z,98330.50
2023-01-13T00:13:29.615Z,98325.34
2023-01-13T00:16:00.618Z,98319.38
2023-01-13T00:18:27.915Z,98318.34
2023-01-13T00:21:08.816Z,98305.94
2023-01-13T00:23:36.097Z,98306.09
2023-01-13T00:26:05.763Z,98306.59
2023-01-13T00:28:33.067Z,98303.25
2023-01-13T00:31:11.376Z,98300.56
2023-01-13T00:33:38.746Z,98291.81
2023-01-13T00:36:06.932Z,98293.75
2023-01-13T00:38:35.847Z,98299.84
2023-01-13T00:41:07.895Z,98296.94
2023-01-13T00:43:36.023Z,98297.03
2023-01-13T00:46:04.172Z,98297.28
2023-01-13T00:48:31.286Z,98293.81
2023-01-13T00:51:00.129Z,98294.44
2023-01-13T00:53:27.803Z,98301.63
2023-01-13T00:56:08.144Z,98297.47
2023-01-13T00:58:35.696Z,98300.41
2023-01-13T01:01:06.251Z,98300.69
2023-01-13T01:03:33.732Z,98298.12
2023-01-13T01:06:13.888Z,98295.09
2023-01-13T01:08:41.392Z,98298.25
2023-01-13T01:11:13.298Z,98289.09
2023-01-13T01:13:40.594Z,98277.87
2023-01-13T01:16:09.596Z,98278.69
2023-01-13T01:18:38.712Z,98280.13
2023-01-13T01:21:06.175Z,98281.16
2023-01-13T01:23:33.708Z,98270.66
2023-01-13T01:26:12.913Z,98264.31
2023-01-13T01:28:40.074Z,98262.69
2023-01-13T01:31:08.937Z,98266.88
2023-01-13T01:33:35.820Z,98259.19
2023-01-13T01:36:02.990Z,98254.22
2023-01-13T01:38:29.956Z,98255.84
2023-01-13T01:40:56.881Z,98255.47
2023-01-13T01:43:42.769Z,98256.56
2023-01-13T01:46:10.054Z,98249.13
2023-01-13T01:48:40.839Z,98246.34
2023-01-13T01:51:10.412Z,98249.47
2023-01-13T01:53:37.467Z,98238.25
2023-01-13T01:56:04.406Z,98247.28
2023-01-13T01:58:51.462Z,98249.03
2023-01-13T02:01:18.909Z,98250.38
2023-01-13T02:03:56.921Z,98249.50
2023-01-13T02:06:24.462Z,98250.28
2023-01-13T02:08:52.295Z,98237.62
2023-01-13T02:11:52.206Z,98243.56
2023-01-13T02:14:20.585Z,98235.66
2023-01-13T02:17:13.525Z,98241.34
2023-01-13T02:20:14.033Z,98238.84
2023-01-13T02:23:36.411Z,98239.44
2023-01-13T02:26:18.404Z,98231.53
2023-01-13T02:29:33.075Z,98229.75
2023-01-13T02:32:17.870Z,98224.63
2023-01-13T02:34:53.636Z,98216.53
2023-01-13T02:37:28.837Z,98216.72
2023-01-13T02:40:02.873Z,98206.34
2023-01-13T02:42:59.381Z,98208.31
2023-01-13T02:45:29.780Z,98200.66
2023-01-13T02:47:57.381Z,98201.31
2023-01-13T02:50:32.125Z,98197.47
2023-01-13T02:53:09.080Z,98185.38
2023-01-13T02:55:39.124Z,98183.88
2023-01-13T02:58:08.522Z,98188.38
2023-01-13T03:00:36.838Z,98193.19
2023-01-13T03:03:03.892Z,98185.75
2023-01-13T03:05:32.156Z,98190.12
2023-01-13T03:08:15.859Z,98181.97
2023-01-13T03:10:48.085Z,98175.31
2023-01-13T03:13:21.027Z,98168.16
2023-01-13T03:16:12.544Z,98172.47
2023-01-13T03:18:48.184Z,98172.28
2023-01-13T03:21:59.929Z,98161.56
2023-01-13T03:24:35.672Z,98166.56
2023-01-13T03:27:24.157Z,98170.47
2023-01-13T03:30:04.965Z,98170.69
2023-01-13T03:32:41.751Z,98165.59
2023-01-13T03:35:13.563Z,98160.72
2023-01-13T03:37:46.011Z,98157.94
2023-01-13T03:40:20.997Z,98157.94
2023-01-13T03:43:11.099Z,98162.16
2023-01-13T03:45:40.159Z,98156.09
2023-01-13T03:48:14.296Z,98157.78
2023-01-13T03:50:44.602Z,98163.16
2023-01-13T03:53:15.461Z,98155.41
2023-01-13T03:55:47.367Z,98158.25
2023-01-13T03:58:43.896Z,98165.38
2023-01-13T04:01:17.611Z,98160.72
2023-01-13T04:03:52.312Z,98153.91
2023-01-13T04:07:01.259Z,98155.28
2023-01-13T04:09:38.093Z,98151.34
2023-01-13T04:12:28.065Z,98145.44
2023-01-13T04:14:55.620Z,98149.44
2023-01-13T04:17:24.773Z,98144.22
2023-01-13T04:19:51.605Z,98143.97
2023-01-13T04:22:18.301Z,98139.72
2023-01-13T04:24:45.192Z,98148.13
2023-01-13T04:27:12.009Z,98143.31
2023-01-13T04:29:38.673Z,98143.38
2023-01-13T04:32:05.637Z,98144.81
2023-01-13T04:34:32.552Z,98143.84
2023-01-13T04:36:59.435Z,98144.31
2023-01-13T04:39:26.287Z,98138.53
2023-01-13T04:41:59.062Z,98148.69
2023-01-13T04:44:26.948Z,98150.28
2023-01-13T04:46:54.085Z,98150.00
2023-01-13T04:49:20.996Z,98160.47
2023-01-13T04:51:48.109Z,98162.56
2023-01-13T04:54:15.051Z,98162.53
2023-01-13T04:56:42.063Z,98166.22
2023-01-13T04:59:13.369Z,98164.22
2023-01-13T05:01:41.211Z,98167.62
2023-01-13T05:04:08.710Z,98160.47
2023-01-13T05:06:35.976Z,98165.91
2023-01-13T05:09:02.857Z,98174.41
2023-01-13T05:11:48.392Z,98172.13
2023-01-13T05:14:34.102Z,98177.22
2023-01-13T05:17:00.960Z,98172.13
2023-01-13T05:19:31.826Z,98167.38
2023-01-13T05:22:17.936Z,98182.09
2023-01-13T05:25:03.680Z,98180.44
2023-01-13T05:27:31.347Z,98174.22
2023-01-13T05:29:58.670Z,98171.25
2023-01-13T05:32:28.154Z,98172.91
2023-01-13T05:34:56.020Z,98169.88
2023-01-13T05:37:23.662Z,98168.19
2023-01-13T05:40:09.235Z,98167.53
2023-01-13T05:42:54.527Z,98172.00
2023-01-13T05:45:21.779Z,98173.81
2023-01-13T05:47:48.723Z,98164.25
2023-01-13T05:50:16.061Z,98161.16
2023-01-13T05:52:43.648Z,98167.16
2023-01-13T05:55:11.485Z,98172.84
2023-01-13T05:57:38.363Z,98157.75
2023-01-13T06:00:05.960Z,98155.38
2023-01-13T06:02:32.898Z,98164.56
2023-01-13T06:04:59.927Z,98164.00
2023-01-13T06:07:26.813Z,98160.59
2023-01-13T06:09:54.661Z,98168.25
2023-01-13T06:12:21.535Z,98159.38
2023-01-13T06:14:48.406Z,98163.28
2023-01-13T06:17:15.601Z,98159.28
2023-01-13T06:19:43.452Z,98150.34
2023-01-13T06:22:27.241Z,98153.75
2023-01-13T06:24:54.790Z,98153.50
2023-01-13T06:27:22.850Z,98153.69
2023-01-13T06:29:49.971Z,98156.00
2023-01-13T06:32:32.272Z,98154.88
2023-01-13T06:35:05.633Z,98152.00
2023-01-13T06:37:33.356Z,98156.28
2023-01-13T06:40:02.001Z,98156.84
2023-01-13T06:42:48.944Z,98154.56
2023-01-13T06:45:15.953Z,98156.50
2023-01-13T06:47:43.581Z,98163.31
2023-01-13T06:50:11.308Z,98156.28
2023-01-13T06:52:38.146Z,98157.56
2023-01-13T06:55:04.967Z,98159.62
2023-01-13T06:57:31.796Z,98162.28
2023-01-13T06:59:58.481Z,98158.78
2023-01-13T07:02:26.170Z,98166.53
2023-01-13T07:04:53.138Z,98163.47
2023-01-13T07:07:19.803Z,98158.00
2023-01-13T07:09:46.667Z,98159.72
2023-01-13T07:12:13.325Z,98166.97
2023-01-13T07:14:58.759Z,98155.47
2023-01-13T07:17:25.640Z,98156.16
2023-01-13T07:19:53.270Z,98162.81
2023-01-13T07:22:20.194Z,98168.66
2023-01-13T07:24:47.038Z,98169.75
2023-01-13T07:27:13.738Z,98170.09
2023-01-13T07:29:40.679Z,98163.41
2023-01-13T07:32:08.166Z,98157.97
2023-01-13T07:34:35.138Z,98157.37
2023-01-13T07:37:02.361Z,98150.44
2023-01-13T07:39:29.213Z,98143.41
2023-01-13T07:42:14.568Z,98147.00
2023-01-13T07:44:41.425Z,98147.09
2023-01-13T07:47:10.613Z,98146.12
2023-01-13T07:49:37.519Z,98152.69
2023-01-13T07:52:04.656Z,98154.69
2023-01-13T07:54:40.019Z,98151.41
2023-01-13T07:57:08.120Z,98150.88
2023-01-13T07:59:35.147Z,98154.44
2023-01-13T08:02:02.138Z,98161.63
2023-01-13T08:04:29.256Z,98170.88
2023-01-13T08:06:56.119Z,98182.19
2023-01-13T08:09:22.804Z,98181.66
2023-01-13T08:12:09.576Z,98193.63
2023-01-13T08:14:36.495Z,98190.59
2023-01-13T08:17:03.147Z,98201.09
2023-01-13T08:19:29.996Z,98217.31
2023-01-13T08:21:57.064Z,98215.47
2023-01-13T08:24:23.941Z,98220.38
2023-01-13T08:26:50.824Z,98228.03
2023-01-13T08:29:17.799Z,98228.84
2023-01-13T08:31:55.614Z,98229.28
2023-01-13T08:34:22.608Z,98225.87
2023-01-13T08:36:50.388Z,98222.81
2023-01-13T08:39:18.735Z,98224.28
2023-01-13T08:41:58.597Z,98234.88
2023-01-13T08:44:29.975Z,98224.91
2023-01-13T08:46:57.655Z,98229.19
2023-01-13T08:49:24.749Z,98233.19
2023-01-13T08:51:52.555Z,98241.72
2023-01-13T08:54:19.840Z,98247.00
2023-01-13T08:56:47.222Z,98245.91
2023-01-13T08:59:19.043Z,98247.31
2023-01-13T09:01:46.269Z,98247.87
2023-01-13T09:04:26.457Z,98248.13
2023-01-13T09:06:54.438Z,98237.97
2023-01-13T09:09:23.088Z,98225.31
2023-01-13T09:12:10.699Z,98223.38
2023-01-13T09:14:38.729Z,98226.84
2023-01-13T09:17:05.994Z,98218.37
2023-01-13T09:19:32.900Z,98212.66
2023-01-13T09:22:00.055Z,98204.47
2023-01-13T09:24:27.122Z,98196.09
2023-01-13T09:26:54.057Z,98205.91
2023-01-13T09:29:20.916Z,98187.22
2023-01-13T09:31:47.710Z,98186.72
2023-01-13T09:34:35.526Z,98180.66
2023-01-13T09:37:02.816Z,98179.25
2023-01-13T09:39:29.821Z,98202.69
2023-01-13T09:42:17.530Z,98209.63
2023-01-13T09:45:05.390Z,98216.00
2023-01-13T09:47:46.389Z,98222.16
2023-01-13T09:51:09.439Z,98236.88
2023-01-13T09:54:03.587Z,98240.28
2023-01-13T09:56:30.461Z,98226.09
2023-01-13T09:58:59.808Z,98209.41
2023-01-13T10:02:12.886Z,98209.09
2023-01-13T10:04:39.802Z,98225.97
2023-01-13T10:07:14.259Z,98225.19
2023-01-13T10:09:51.988Z,98224.97
2023-01-13T10:12:42.507Z,98224.25
2023-01-13T10:15:18.106Z,98230.28
2023-01-13T10:17:51.376Z,98219.84
2023-01-13T10:20:36.555Z,98212.31
2023-01-13T10:23:12.540Z,98196.53
2023-01-13T10:25:48.568Z,98203.38
2023-01-13T10:28:19.489Z,98206.69
2023-01-13T10:30:47.848Z,98209.53
2023-01-13T10:33:18.844Z,98210.13
2023-01-13T10:35:51.648Z,98213.88
2023-01-13T10:38:24.338Z,98216.75
2023-01-13T10:40:59.391Z,98211.63
2023-01-13T10:43:27.639Z,98183.09
2023-01-13T10:45:58.881Z,98170.22
2023-01-13T10:48:34.179Z,98150.91
2023-01-13T10:51:50.525Z,98162.34
2023-01-13T10:54:22.492Z,98161.06
2023-01-13T10:56:50.527Z,98170.44
2023-01-13T10:59:22.381Z,98169.13
2023-01-13T11:02:25.401Z,98163.97
2023-01-13T11:05:10.232Z,98158.97
2023-01-13T11:07:40.870Z,98159.16
2023-01-13T11:10:27.625Z,98152.91
2023-01-13T11:13:02.468Z,98140.69
2023-01-13T11:15:36.906Z,98131.69
2023-01-13T11:18:36.204Z,98136.13
2023-01-13T11:21:16.332Z,98130.59
2023-01-13T11:23:50.681Z,98121.03
2023-01-13T11:26:27.043Z,98121.41
2023-01-13T11:29:01.379Z,98119.00
2023-01-13T11:31:36.331Z,98115.47
2023-01-13T11:34:08.648Z,98116.09
2023-01-13T11:36:40.184Z,98098.91
2023-01-13T11:39:44.170Z,98094.19
2023-01-13T11:42:37.147Z,98082.75
2023-01-13T11:45:20.748Z,98083.50
2023-01-13T11:47:49.802Z,98088.37
2023-01-13T11:50:34.462Z,98090.63
2023-01-13T11:56:08.784Z,98083.22
2023-01-13T11:59:11.560Z,98081.97
2023-01-13T12:01:38.417Z,98067.56
2023-01-13T12:04:23.707Z,98077.94
2023-01-13T12:07:07.568Z,98079.84
2023-01-13T12:10:11.597Z,98071.16
2023-01-13T12:12:51.937Z,98070.84
2023-01-13T12:15:22.407Z,98074.03
2023-01-13T12:17:51.938Z,98076.50
2023-01-13T12:20:27.750Z,98071.78
2023-01-13T12:22:56.188Z,98064.22
2023-01-13T12:25:44.310Z,98060.38
2023-01-13T12:28:20.960Z,98066.09
2023-01-13T12:30:54.059Z,98052.63
2023-01-13T12:36:36.592Z,98055.22
2023-01-13T12:39:12.465Z,98055.66
2023-01-13T12:42:08.716Z,98057.03
2023-01-13T12:44:35.583Z,98057.69
2023-01-13T12:47:02.634Z,98056.47
2023-01-13T12:49:34.820Z,98065.63
2023-01-13T12:52:09.959Z,98070.78
2023-01-13T12:54:39.641Z,98065.97
2023-01-13T12:57:25.921Z,98060.88
2023-01-13T13:00:13.533Z,98060.81
2023-01-13T13:02:41.903Z,98063.47
2023-01-13T13:05:14.923Z,98071.72
2023-01-13T13:07:55.283Z,98070.53
2023-01-13T13:10:34.472Z,98066.81
2023-01-13T13:13:19.002Z,98072.56
2023-01-13T13:15:50.450Z,98065.72
2023-01-13T13:18:17.268Z,98064.63
2023-01-13T13:21:06.164Z,98069.12
2023-01-13T13:23:47.924Z,98068.19
2023-01-13T13:26:26.911Z,98072.16
2023-01-13T13:29:13.168Z,98076.66
2023-01-13T13:31:55.197Z,98069.81
2023-01-13T13:34:43.988Z,98073.13
2023-01-13T13:38:03.600Z,98065.31
2023-01-13T13:40:50.345Z,98069.38
2023-01-13T13:43:35.733Z,98072.63
2023-01-13T13:46:21.460Z,98072.69
2023-01-13T13:48:54.889Z,98065.56
2023-01-13T13:51:25.559Z,98068.00
2023-01-13T13:53:53.014Z,98073.37
2023-01-13T13:56:23.579Z,98074.72
2023-01-13T13:58:50.684Z,98078.38
2023-01-13T14:01:28.010Z,98079.75
2023-01-13T14:04:10.149Z,98074.94
2023-01-13T14:06:37.036Z,98088.37
2023-01-13T14:09:04.282Z,98086.00
2023-01-13T14:11:33.399Z,98079.91
2023-01-13T14:14:12.474Z,98078.59
2023-01-13T14:16:40.297Z,98082.59
2023-01-13T14:19:25.820Z,98091.03
2023-01-13T14:21:53.835Z,98090.56
2023-01-13T14:24:22.595Z,98094.94
2023-01-13T14:26:53.380Z,98096.37
2023-01-13T14:29:23.113Z,98102.69
2023-01-13T14:34:35.963Z,98093.66
2023-01-13T14:37:25.907Z,98099.72
2023-01-13T14:39:52.802Z,98098.66
2023-01-13T14:42:20.950Z,98102.75
2023-01-13T14:44:50.045Z,98097.50
2023-01-13T14:47:24.922Z,98095.16
2023-01-13T14:50:28.305Z,98097.59
2023-01-13T14:52:57.244Z,98102.59
2023-01-13T14:55:37.513Z,98113.41
2023-01-13T14:58:25.612Z,98107.91
2023-01-13T15:00:53.484Z,98103.75
2023-01-13T15:03:21.576Z,98103.09
2023-01-13T15:05:50.682Z,98102.13
2023-01-13T15:08:34.508Z,98102.25
2023-01-13T15:11:03.660Z,98099.00
2023-01-13T15:13:35.780Z,98106.09
2023-01-13T15:16:06.200Z,98092.56
2023-01-13T15:18:34.395Z,98097.31
2023-01-13T15:21:01.320Z,98096.22
2023-01-13T15:23:28.224Z,98099.75
2023-01-13T15:25:55.225Z,98096.63
2023-01-13T15:28:24.769Z,98110.25
2023-01-13T15:30:53.571Z,98108.44
2023-01-13T15:33:21.547Z,98103.91
2023-01-13T15:35:52.924Z,98104.22
2023-01-13T15:38:22.050Z,98096.66
2023-01-13T15:40:49.923Z,98109.78
2023-01-13T15:43:40.437Z,98099.34
2023-01-13T15:46:31.668Z,98103.75
2023-01-13T15:49:19.416Z,98099.00
2023-01-13T15:51:46.260Z,98099.81
2023-01-13T15:54:13.348Z,98108.88
2023-01-13T15:56:41.448Z,98109.06
2023-01-13T15:59:27.691Z,98092.66
2023-01-13T16:01:54.863Z,98098.69
2023-01-13T16:04:21.819Z,98096.97
2023-01-13T16:06:48.805Z,98104.56
2023-01-13T16:09:17.010Z,98108.34
2023-01-13T16:11:44.131Z,98116.00
2023-01-13T16:14:10.979Z,98118.81
2023-01-13T16:16:37.919Z,98107.75
2023-01-13T16:19:05.137Z,98103.25
2023-01-13T16:21:31.989Z,98107.81
2023-01-13T16:23:58.863Z,98106.13
2023-01-13T16:26:29.355Z,98113.81
2023-01-13T16:28:58.006Z,98102.75
2023-01-13T16:31:33.257Z,98108.22
2023-01-13T16:34:01.884Z,98107.47
2023-01-13T16:36:31.464Z,98117.09
2023-01-13T16:38:58.353Z,98117.56
2023-01-13T16:41:25.378Z,98122.38
2023-01-13T16:43:52.801Z,98121.13
2023-01-13T16:46:25.911Z,98137.03
2023-01-13T16:49:01.718Z,98125.50
2023-01-13T16:51:28.724Z,98133.31
2023-01-13T16:53:55.564Z,98125.47
2023-01-13T16:56:25.289Z,98132.78
2023-01-13T16:58:54.079Z,98137.00
2023-01-13T17:01:24.022Z,98143.94
2023-01-13T17:03:51.783Z,98145.88
2023-01-13T17:06:29.061Z,98149.00
2023-01-13T17:09:01.621Z,98146.22
2023-01-13T17:11:28.485Z,98143.34
2023-01-13T17:13:55.309Z,98140.87
2023-01-13T17:16:22.470Z,98146.06
2023-01-13T17:18:49.389Z,98157.91
2023-01-13T17:21:17.212Z,98147.25
2023-01-13T17:23:44.569Z,98147.75
2023-01-13T17:26:26.074Z,98160.47
2023-01-13T17:28:52.910Z,98156.06
2023-01-13T17:31:19.799Z,98153.72
2023-01-13T17:33:46.667Z,98162.22
2023-01-13T17:36:13.551Z,98166.38
2023-01-13T17:38:40.378Z,98165.53
2023-01-13T17:41:07.083Z,98174.19
2023-01-13T17:43:34.011Z,98167.94
2023-01-13T17:46:01.030Z,98169.00
2023-01-13T17:48:27.931Z,98165.97
2023-01-13T17:50:54.852Z,98166.75
2023-01-13T17:53:21.700Z,98167.72
2023-01-13T17:55:52.104Z,98168.78
2023-01-13T17:58:19.896Z,98166.81
2023-01-13T18:00:47.284Z,98172.63
2023-01-13T18:03:14.314Z,98178.56
2023-01-13T18:05:41.383Z,98178.41
2023-01-13T18:08:09.234Z,98162.50
2023-01-13T18:10:36.311Z,98174.88
2023-01-13T18:13:03.732Z,98171.75
2023-01-13T18:15:31.012Z,98171.34
2023-01-13T18:17:57.882Z,98173.16
2023-01-13T18:20:43.485Z,98177.06
2023-01-13T18:23:38.138Z,98179.09
2023-01-13T18:26:39.269Z,98174.94
2023-01-13T18:29:06.279Z,98184.84
2023-01-13T18:31:33.205Z,98184.44
2023-01-13T18:34:00.119Z,98188.50
2023-01-13T18:36:27.039Z,98198.47
2023-01-13T18:38:53.876Z,98203.63
2023-01-13T18:41:38.908Z,98207.72
2023-01-13T18:44:05.939Z,98210.69
2023-01-13T18:46:32.879Z,98203.38
2023-01-13T18:49:00.231Z,98209.00
2023-01-13T18:51:27.105Z,98223.19
2023-01-13T18:53:54.164Z,98214.22
2023-01-13T18:56:21.349Z,98217.06
2023-01-13T18:58:54.365Z,98221.88
2023-01-13T19:01:25.782Z,98231.94
2023-01-13T19:04:05.177Z,98238.59
2023-01-13T19:06:33.728Z,98240.13
2023-01-13T19:09:08.348Z,98240.84
2023-01-13T19:11:36.388Z,98239.63
2023-01-13T19:14:04.046Z,98240.94
2023-01-13T19:16:30.891Z,98243.50
2023-01-13T19:18:57.740Z,98241.00
2023-01-13T19:21:25.432Z,98250.78
2023-01-13T19:23:56.259Z,98256.66
2023-01-13T19:26:23.155Z,98261.41
2023-01-13T19:28:50.698Z,98265.91
2023-01-13T19:31:20.519Z,98259.44
2023-01-13T19:33:47.449Z,98265.53
2023-01-13T19:36:14.421Z,98276.81
2023-01-13T19:38:41.269Z,98268.84
2023-01-13T19:41:28.199Z,98274.22
2023-01-13T19:44:14.856Z,98280.22
2023-01-13T19:46:41.767Z,98283.78
2023-01-13T19:49:08.662Z,98295.66
2023-01-13T19:51:35.552Z,98306.03
2023-01-13T19:54:02.610Z,98319.38
2023-01-13T19:56:30.808Z,98315.81
2023-01-13T19:58:57.625Z,98307.84
2023-01-13T20:01:31.889Z,98302.31
2023-01-13T20:04:06.836Z,98300.78
2023-01-13T20:06:33.753Z,98290.31
2023-01-13T20:09:00.633Z,98269.19
2023-01-13T20:11:31.934Z,98235.06
2023-01-13T20:13:59.523Z,98234.84
2023-01-13T20:16:27.626Z,98233.75
2023-01-13T20:18:55.007Z,98217.50
2023-01-13T20:21:22.049Z,98206.69
2023-01-13T20:23:53.113Z,98203.50
2023-01-13T20:26:20.996Z,98206.44
2023-01-13T20:28:47.952Z,98204.44
2023-01-13T20:31:15.709Z,98212.88
2023-01-13T20:33:42.894Z,98216.63
2023-01-13T20:36:27.233Z,98224.00
2023-01-13T20:38:59.386Z,98226.97
2023-01-13T20:41:45.157Z,98236.91
2023-01-13T20:44:12.739Z,98241.41
2023-01-13T20:46:43.403Z,98239.59
2023-01-13T20:49:11.122Z,98236.19
2023-01-13T20:51:38.533Z,98250.19
2023-01-13T20:54:05.474Z,98260.88
2023-01-13T20:56:32.323Z,98254.09
2023-01-13T20:58:59.027Z,98255.22
2023-01-13T21:01:26.867Z,98259.19
2023-01-13T21:03:57.271Z,98264.25
2023-01-13T21:06:24.369Z,98275.69
2023-01-13T21:08:53.308Z,98287.66
2023-01-13T21:11:41.739Z,98307.13
2023-01-13T21:14:35.120Z,98326.16
2023-01-13T21:17:02.475Z,98353.59
2023-01-13T21:19:29.332Z,98380.09
2023-01-13T21:21:56.772Z,98401.31
2023-01-13T21:24:24.657Z,98402.53
2023-01-13T21:26:55.361Z,98392.75
2023-01-13T21:29:23.174Z,98404.56
2023-01-13T21:31:50.119Z,98402.09
2023-01-13T21:34:18.190Z,98357.72
2023-01-13T21:36:45.145Z,98295.19
2023-01-13T21:39:14.237Z,98277.56
2023-01-13T21:41:59.651Z,98293.41
2023-01-13T21:44:45.241Z,98317.13
2023-01-13T21:47:35.310Z,98334.88
2023-01-13T21:50:02.644Z,98358.75
2023-01-13T21:52:29.538Z,98357.03
2023-01-13T21:55:15.304Z,98344.75
2023-01-13T21:57:45.252Z,98346.41
2023-01-13T22:00:12.592Z,98336.03
2023-01-13T22:02:39.688Z,98328.88
2023-01-13T22:05:07.890Z,98323.44
2023-01-13T22:07:36.171Z,98325.28
2023-01-13T22:10:04.575Z,98321.72
2023-01-13T22:12:31.514Z,98326.75
2023-01-13T22:14:58.423Z,98341.16
2023-01-13T22:17:26.915Z,98343.88
2023-01-13T22:19:55.075Z,98344.00
2023-01-13T22:22:22.303Z,98350.16
2023-01-13T22:24:50.595Z,98337.63
2023-01-13T22:27:21.465Z,98347.50
2023-01-13T22:29:49.740Z,98342.41
2023-01-13T22:32:17.162Z,98345.19
2023-01-13T22:34:44.380Z,98338.72
2023-01-13T22:37:11.713Z,98340.25
2023-01-13T22:39:39.036Z,98347.66
2023-01-13T22:42:06.183Z,98350.06
2023-01-13T22:44:33.994Z,98345.03
2023-01-13T22:47:00.881Z,98349.16
2023-01-13T22:49:27.806Z,98348.41
2023-01-13T22:51:54.735Z,98351.44
2023-01-13T22:54:21.651Z,98361.91
2023-01-13T22:56:48.482Z,98355.59
2023-01-13T22:59:16.153Z,98362.28
2023-01-13T23:01:43.306Z,98363.06
2023-01-13T23:04:13.230Z,98358.56
2023-01-13T23:06:40.880Z,98362.37
2023-01-13T23:09:08.255Z,98357.50
2023-01-13T23:11:35.516Z,98363.22
2023-01-13T23:14:06.542Z,98350.75
2023-01-13T23:16:38.392Z,98347.87
2023-01-13T23:19:06.732Z,98349.31
2023-01-13T23:21:36.690Z,98345.53
2023-01-13T23:24:04.929Z,98341.81
2023-01-13T23:26:31.996Z,98340.16
2023-01-13T23:29:08.732Z,98349.03
2023-01-13T23:31:35.771Z,98349.69
2023-01-13T23:34:02.856Z,98351.28
2023-01-13T23:36:30.247Z,98352.41
2023-01-13T23:38:58.768Z,98356.50
2023-01-13T23:41:26.762Z,98351.22
2023-01-13T23:43:58.660Z,98343.16
2023-01-13T23:46:26.493Z,98345.38
2023-01-13T23:48:55.184Z,98341.16
2023-01-13T23:51:22.402Z,98338.31
2023-01-13T23:53:50.234Z,98344.12
2023-01-13T23:56:20.361Z,98342.41
2023-01-13T23:58:47.402Z,98337.28
